Time;durP1;ratioP1;P1;durP2;ratioP2;P2;SDS_P1;SDS_P2;PMS_P1;PMS_P2;Temp;Humidity;BMP_temperature;BMP_pressure;BME280_temperature;BME280_humidity;BME280_pressure;Samples;Min_cycle;Max_cycle;Signal;HPM_P1;HPM_P2
2022/05/26 00:00:53;;;;;;;;;;;;;;;;;;5020625;28;19924;-81
2022/05/26 00:03:19;;;;;;;;;;;;;;;;;;5004202;28;19933;-81
2022/05/26 00:05:45;;;;;;;;;;;;;;;;;;5021025;28;20295;-81
2022/05/26 00:08:11;;;;;;;;;;;;;;;;;;5020853;28;19963;-80
2022/05/26 00:10:37;;;;;;;;;;;;;;;;;;5003961;28;19921;-80
2022/05/26 00:13:02;;;;;;;;;;;;;;;;;;5020980;28;19921;-81
2022/05/26 00:15:30;;;;;;;;;;;;;;;;;;5004500;28;19917;-80
2022/05/26 00:17:55;;;;;;;;;;;;;;;;;;5021103;28;19913;-80
2022/05/26 00:20:20;;;;;;;;;;;;;;;;;;5021192;28;19924;-80
2022/05/26 00:22:46;;;;;;;;;;;;;;;;;;5022010;28;19917;-81
2022/05/26 00:25:11;;;;;;;;;;;;;;;;;;5005970;28;19992;-80
2022/05/26 00:27:36;;;;;;;;;;;;;;;;;;5023244;28;19964;-80
2022/05/26 00:30:02;;;;;;;;;;;;;;;;;;5006627;28;19925;-80
2022/05/26 00:32:29;;;;;;;;;;;;;;;;;;5006741;28;19924;-80
2022/05/26 00:34:54;;;;;;;;;;;;;;;;;;5006871;28;19917;-80
2022/05/26 00:37:19;;;;;;;;;;;;;;;;;;5040712;28;20294;-80
2022/05/26 00:39:45;;;;;;;;;;;;;;;;;;5041563;28;19917;-81
2022/05/26 00:42:11;;;;;;;;;;;;;;;;;;5023999;28;20367;-81
2022/05/26 00:44:36;;;;;;;;;;;;;;;;;;4999437;28;19940;-80
2022/05/26 00:47:08;;;;;;;;;;;;;;;;;;5022537;28;19928;-81
2022/05/26 00:49:37;;;;;;;;;;;;;;;;;;5006010;28;19925;-81
2022/05/26 00:52:03;;;;;;;;;;;;;;;;;;5017956;28;20298;-81
2022/05/26 00:54:29;;;;;;;;;;;;;;;;;;4984767;28;19928;-81
2022/05/26 00:57:04;;;;;;;;;;;;;;;;;;5001210;28;19957;-81
2022/05/26 00:59:36;;;;;;;;;;;;;;;;;;5001864;28;19918;-81
2022/05/26 01:02:02;;;;;;;;;;;;;;;;;;5000977;28;19921;-80
2022/05/26 01:04:34;;;;;;;;;;;;;;;;;;4968273;28;19961;-80
2022/05/26 01:07:05;;;;;;;;;;;;;;;;;;4968211;28;19917;-81
2022/05/26 01:09:31;;;;;;;;;;;;;;;;;;4984262;28;20012;-81
2022/05/26 01:11:56;;;;;;;;;;;;;;;;;;4984601;28;19957;-81
2022/05/26 01:14:26;;;;;;;;;;;;;;;;;;4984195;28;19921;-80
2022/05/26 01:17:00;;;;;;;;;;;;;;;;;;4967589;28;20008;-80
2022/05/26 01:19:31;;;;;;;;;;;;;;;;;;4983191;28;19918;-80
2022/05/26 01:22:06;;;;;;;;;;;;;;;;;;4983125;28;19924;-80
2022/05/26 01:24:58;;;;;;;;;;;;;;;;;;4999239;28;19956;-81
2022/05/26 01:27:27;;;;;;;;;;;;;;;;;;4983710;28;20004;-80
2022/05/26 01:30:09;;;;;;;;;;;;;;;;;;4966662;28;19968;-80
2022/05/26 01:32:38;;;;;;;;;;;;;;;;;;5029717;28;20011;-81
2022/05/26 01:35:18;;;;;;;;;;;;;;;;;;5006148;28;19917;-80
2022/05/26 01:38:02;;;;;;;;;;;;;;;;;;5021721;28;19917;-80
2022/05/26 01:40:48;;;;;;;;;;;;;;;;;;5039331;28;19917;-80
2022/05/26 01:43:22;;;;;;;;;;;;;;;;;;4982763;28;19928;-80
2022/05/26 01:46:17;;;;;;;;;;;;;;;;;;5005827;28;20405;-80
2022/05/26 01:48:47;;;;;;;;;;;;;;;;;;4988964;28;20436;-80
2022/05/26 01:51:16;;;;;;;;;;;;;;;;;;4988383;28;19944;-80
2022/05/26 01:54:01;;;;;;;;;;;;;;;;;;5000705;28;20522;-81
2022/05/26 01:56:28;;;;;;;;;;;;;;;;;;4999987;28;19925;-80
2022/05/26 01:59:01;;;;;;;;;;;;;;;;;;5085036;28;19913;-80
2022/05/26 02:01:28;;;;;;;;;;;;;;;;;;5081621;27;19924;-80
2022/05/26 02:03:55;;;;;;;;;;;;;;;;;;5047487;28;19917;-80
2022/05/26 02:06:31;;;;;;;;;;;;;;;;;;5047811;28;20361;-80
2022/05/26 02:08:59;;;;;;;;;;;;;;;;;;5031742;28;19917;-80
2022/05/26 02:11:28;;;;;;;;;;;;;;;;;;5031170;28;19917;-80
2022/05/26 02:14:03;;;;;;;;;;;;;;;;;;5054247;28;20363;-79
2022/05/26 02:16:34;;;;;;;;;;;;;;;;;;5053404;27;19971;-80
2022/05/26 02:19:09;;;;;;;;;;;;;;;;;;5036808;28;19929;-80
2022/05/26 02:21:38;;;;;;;;;;;;;;;;;;5053670;28;19924;-80
2022/05/26 02:24:08;;;;;;;;;;;;;;;;;;5037461;28;19953;-80
2022/05/26 02:26:35;;;;;;;;;;;;;;;;;;5053558;28;19917;-80
2022/05/26 02:31:47;;;;;;;;;;;;;;;;;;5070834;28;19917;-80
2022/05/26 02:34:15;;;;;;;;;;;;;;;;;;5065393;27;19920;-80
2022/05/26 02:36:40;;;;;;;;;;;;;;;;;;5057588;28;19924;-80
2022/05/26 02:39:07;;;;;;;;;;;;;;;;;;5073807;28;19917;-80
2022/05/26 02:41:32;;;;;;;;;;;;;;;;;;5072897;28;19921;-79
2022/05/26 02:43:58;;;;;;;;;;;;;;;;;;5074150;28;19924;-80
2022/05/26 02:46:43;;;;;;;;;;;;;;;;;;5039673;28;20392;-79
2022/05/26 02:49:18;;;;;;;;;;;;;;;;;;5056465;28;19966;-80
2022/05/26 02:51:54;;;;;;;;;;;;;;;;;;5058717;27;19939;-79
2022/05/26 02:54:27;;;;;;;;;;;;;;;;;;5052423;28;19963;-79
2022/05/26 02:57:12;;;;;;;;;;;;;;;;;;5052316;28;19929;-79
2022/05/26 02:59:59;;;;;;;;;;;;;;;;;;5052314;28;19921;-80
2022/05/26 03:02:28;;;;;;;;;;;;;;;;;;5084769;28;19918;-80
2022/05/26 03:05:03;;;;;;;;;;;;;;;;;;5052734;28;19917;-80
2022/05/26 03:07:30;;;;;;;;;;;;;;;;;;5052460;28;19996;-80
2022/05/26 03:09:55;;;;;;;;;;;;;;;;;;5040190;28;19984;-80
2022/05/26 03:12:23;;;;;;;;;;;;;;;;;;5021641;28;19998;-80
2022/05/26 03:14:50;;;;;;;;;;;;;;;;;;5037303;28;20015;-79
2022/05/26 03:17:16;;;;;;;;;;;;;;;;;;5038586;28;19918;-80
2022/05/26 03:19:41;;;;;;;;;;;;;;;;;;5022244;28;19974;-80
2022/05/26 03:22:06;;;;;;;;;;;;;;;;;;5038041;28;19917;-80
2022/05/26 03:24:33;;;;;;;;;;;;;;;;;;5021320;28;20398;-80
2022/05/26 03:26:59;;;;;;;;;;;;;;;;;;5037663;28;19918;-80
2022/05/26 03:29:28;;;;;;;;;;;;;;;;;;5037165;28;19917;-79
2022/05/26 03:31:54;;;;;;;;;;;;;;;;;;5023509;28;19963;-80
2022/05/26 03:42:34;;;;;;;;;;;;;;;;;;5056106;28;19921;-80
2022/05/26 03:45:02;;;;;;;;;;;;;;;;;;5023298;28;19946;-80
2022/05/26 03:47:30;;;;;;;;;;;;;;;;;;5038884;28;20280;-80
2022/05/26 03:49:56;;;;;;;;;;;;;;;;;;5020813;28;19974;-80
2022/05/26 03:52:24;;;;;;;;;;;;;;;;;;5038679;28;19921;-79
2022/05/26 03:54:50;;;;;;;;;;;;;;;;;;5037854;28;19949;-79
2022/05/26 03:57:23;;;;;;;;;;;;;;;;;;5036303;28;19922;-80
2022/05/26 03:59:52;;;;;;;;;;;;;;;;;;5017997;28;20000;-80
2022/05/26 04:02:18;;;;;;;;;;;;;;;;;;5016754;28;19925;-80
2022/05/26 04:04:46;;;;;;;;;;;;;;;;;;5017009;28;20327;-80
2022/05/26 04:07:12;;;;;;;;;;;;;;;;;;5018317;28;19918;-80
2022/05/26 04:09:37;;;;;;;;;;;;;;;;;;5017829;28;20387;-80
2022/05/26 04:12:05;;;;;;;;;;;;;;;;;;5001688;28;19921;-80
2022/05/26 04:14:30;;;;;;;;;;;;;;;;;;5001142;28;19918;-80
2022/05/26 04:16:59;;;;;;;;;;;;;;;;;;5049219;28;19964;-79
2022/05/26 04:19:30;;;;;;;;;;;;;;;;;;5019337;28;19925;-80
2022/05/26 04:22:15;;;;;;;;;;;;;;;;;;5020447;28;19918;-80
2022/05/26 04:24:40;;;;;;;;;;;;;;;;;;5005527;28;19929;-80
2022/05/26 04:27:08;;;;;;;;;;;;;;;;;;5021450;28;19918;-80
2022/05/26 04:29:35;;;;;;;;;;;;;;;;;;5005159;28;19947;-80
2022/05/26 04:32:04;;;;;;;;;;;;;;;;;;5069734;27;19922;-80
2022/05/26 04:34:33;;;;;;;;;;;;;;;;;;5041354;28;19962;-80
2022/05/26 04:36:59;;;;;;;;;;;;;;;;;;5040252;28;19922;-80
2022/05/26 04:39:24;;;;;;;;;;;;;;;;;;5023852;28;20016;-80
2022/05/26 04:41:49;;;;;;;;;;;;;;;;;;5024447;28;19917;-80
2022/05/26 04:44:16;;;;;;;;;;;;;;;;;;5041252;28;19953;-80
2022/05/26 04:46:44;;;;;;;;;;;;;;;;;;5007986;28;19917;-80
2022/05/26 04:49:10;;;;;;;;;;;;;;;;;;5023511;28;19917;-80
2022/05/26 04:51:37;;;;;;;;;;;;;;;;;;5024349;28;20012;-80
2022/05/26 04:54:05;;;;;;;;;;;;;;;;;;5040329;28;19917;-80
2022/05/26 04:56:30;;;;;;;;;;;;;;;;;;5039097;28;19917;-80
2022/05/26 04:58:56;;;;;;;;;;;;;;;;;;5023895;28;19966;-80
2022/05/26 05:01:21;;;;;;;;;;;;;;;;;;5022279;28;19972;-80
2022/05/26 05:03:47;;;;;;;;;;;;;;;;;;5021392;28;20298;-80
2022/05/26 05:06:13;;;;;;;;;;;;;;;;;;5037380;28;19929;-80
2022/05/26 05:08:38;;;;;;;;;;;;;;;;;;5036357;28;19918;-83
2022/05/26 05:11:04;;;;;;;;;;;;;;;;;;5038915;28;19917;-79
2022/05/26 05:13:29;;;;;;;;;;;;;;;;;;5018567;28;20343;-79
2022/05/26 05:16:01;;;;;;;;;;;;;;;;;;5036999;28;19924;-80
2022/05/26 05:18:29;;;;;;;;;;;;;;;;;;5038634;28;20016;-80
2022/05/26 05:20:58;;;;;;;;;;;;;;;;;;5038284;28;19918;-80
2022/05/26 05:23:26;;;;;;;;;;;;;;;;;;5037376;28;20454;-79
2022/05/26 05:25:52;;;;;;;;;;;;;;;;;;5022428;28;19917;-80
2022/05/26 05:28:27;;;;;;;;;;;;;;;;;;5052151;28;19952;-80
2022/05/26 05:30:56;;;;;;;;;;;;;;;;;;5040489;28;19975;-80
2022/05/26 05:33:21;;;;;;;;;;;;;;;;;;5073524;28;20412;-82
2022/05/26 05:35:50;;;;;;;;;;;;;;;;;;5006058;28;19917;-80
2022/05/26 05:38:16;;;;;;;;;;;;;;;;;;5036628;28;19921;-79
2022/05/26 05:40:44;;;;;;;;;;;;;;;;;;5019333;28;19925;-80
2022/05/26 05:43:10;;;;;;;;;;;;;;;;;;5037193;28;19968;-79
2022/05/26 05:45:37;;;;;;;;;;;;;;;;;;5021780;28;19940;-79
2022/05/26 05:48:07;;;;;;;;;;;;;;;;;;5037623;28;19941;-79
2022/05/26 05:50:35;;;;;;;;;;;;;;;;;;5019036;28;20007;-79
2022/05/26 05:53:01;;;;;;;;;;;;;;;;;;5037039;28;19936;-80
2022/05/26 05:55:26;;;;;;;;;;;;;;;;;;5019858;28;19918;-79
2022/05/26 05:57:52;;;;;;;;;;;;;;;;;;5032641;28;20405;-81
2022/05/26 06:00:17;;;;;;;;;;;;;;;;;;5032117;28;20355;-79
2022/05/26 06:02:43;;;;;;;;;;;;;;;;;;5030171;28;20012;-81
2022/05/26 06:05:08;;;;;;;;;;;;;;;;;;5029160;28;20296;-83
2022/05/26 06:07:34;;;;;;;;;;;;;;;;;;5031007;28;19917;-81
2022/05/26 06:10:00;;;;;;;;;;;;;;;;;;5015228;28;19925;-81
2022/05/26 06:12:25;;;;;;;;;;;;;;;;;;5034477;28;19918;-82
2022/05/26 06:14:53;;;;;;;;;;;;;;;;;;5016886;28;19917;-82
2022/05/26 06:17:19;;;;;;;;;;;;;;;;;;5031934;28;19921;-80
2022/05/26 06:19:44;;;;;;;;;;;;;;;;;;5014119;28;19921;-80
2022/05/26 06:22:16;;;;;;;;;;;;;;;;;;5047906;28;19967;-79
2022/05/26 06:24:43;;;;;;;;;;;;;;;;;;5031316;28;19990;-79
2022/05/26 06:29:54;;;;;;;;;;;;;;;;;;5016386;28;20319;-79
2022/05/26 06:37:50;;;;;;;;;;;;;;;;;;5048220;28;19926;-81
2022/05/26 06:40:17;;;;;;;;;;;;;;;;;;5031219;28;19918;-81
2022/05/26 06:42:44;;;;;;;;;;;;;;;;;;5014623;28;19929;-80
2022/05/26 06:45:11;;;;;;;;;;;;;;;;;;5017281;28;19917;-80
2022/05/26 06:47:38;;;;;;;;;;;;;;;;;;5034728;28;19939;-80
2022/05/26 06:50:05;;;;;;;;;;;;;;;;;;5045320;27;19922;-79
2022/05/26 06:52:31;;;;;;;;;;;;;;;;;;5032359;28;19925;-79
2022/05/26 06:54:58;;;;;;;;;;;;;;;;;;5031356;28;19918;-79
2022/05/26 06:57:24;;;;;;;;;;;;;;;;;;5030393;28;19922;-79
2022/05/26 06:59:50;;;;;;;;;;;;;;;;;;5030935;28;19921;-79
2022/05/26 07:02:15;;;;;;;;;;;;;;;;;;5011790;28;19918;-78
2022/05/26 07:04:42;;;;;;;;;;;;;;;;;;5018143;28;19954;-79
2022/05/26 07:07:14;;;;;;;;;;;;;;;;;;5033366;28;19924;-78
2022/05/26 07:09:39;;;;;;;;;;;;;;;;;;5050221;28;20302;-78
2022/05/26 07:12:06;;;;;;;;;;;;;;;;;;5017310;28;19913;-78
2022/05/26 07:14:31;;;;;;;;;;;;;;;;;;5033262;28;20279;-78
2022/05/26 07:16:56;;;;;;;;;;;;;;;;;;5016619;28;19917;-78
2022/05/26 07:19:23;;;;;;;;;;;;;;;;;;5017737;28;19945;-78
2022/05/26 07:21:50;;;;;;;;;;;;;;;;;;5033609;28;19914;-78
2022/05/26 07:24:20;;;;;;;;;;;;;;;;;;5018829;28;20335;-78
2022/05/26 07:26:49;;;;;;;;;;;;;;;;;;5033402;28;19924;-78
2022/05/26 07:29:16;;;;;;;;;;;;;;;;;;5033415;28;19918;-78
2022/05/26 07:31:45;;;;;;;;;;;;;;;;;;5033145;28;19929;-78
2022/05/26 07:34:12;;;;;;;;;;;;;;;;;;5016791;28;19941;-78
2022/05/26 07:42:11;;;;;;;;;;;;;;;;;;5018237;28;19924;-78
2022/05/26 07:44:38;;;;;;;;;;;;;;;;;;5032151;28;19925;-78
2022/05/26 07:47:04;;;;;;;;;;;;;;;;;;5032985;28;19913;-78
2022/05/26 07:49:32;;;;;;;;;;;;;;;;;;5019486;28;19923;-78
2022/05/26 07:52:00;;;;;;;;;;;;;;;;;;5036153;28;20008;-78
2022/05/26 07:54:25;;;;;;;;;;;;;;;;;;5046250;28;19918;-76
2022/05/26 07:56:50;;;;;;;;;;;;;;;;;;5043981;28;19966;-77
2022/05/26 07:59:16;;;;;;;;;;;;;;;;;;5028035;28;19928;-76
2022/05/26 08:01:41;;;;;;;;;;;;;;;;;;5027935;28;19917;-76
2022/05/26 08:04:07;;;;;;;;;;;;;;;;;;5027280;28;19925;-76
2022/05/26 08:06:34;;;;;;;;;;;;;;;;;;5014805;28;19964;-77
2022/05/26 08:09:02;;;;;;;;;;;;;;;;;;5028032;28;19917;-78
2022/05/26 08:11:28;;;;;;;;;;;;;;;;;;5028923;28;19918;-78
2022/05/26 08:13:53;;;;;;;;;;;;;;;;;;5046349;27;19924;-77
2022/05/26 08:16:19;;;;;;;;;;;;;;;;;;5013834;28;19917;-78
2022/05/26 08:18:44;;;;;;;;;;;;;;;;;;5015632;28;19921;-79
2022/05/26 08:21:12;;;;;;;;;;;;;;;;;;5049920;28;19961;-80
2022/05/26 08:23:38;;;;;;;;;;;;;;;;;;5033617;28;20332;-80
2022/05/26 08:26:03;;;;;;;;;;;;;;;;;;5017907;28;19975;-79
2022/05/26 08:28:29;;;;;;;;;;;;;;;;;;5033704;28;19917;-79
2022/05/26 08:30:54;;;;;;;;;;;;;;;;;;5047728;28;19917;-79
2022/05/26 08:33:21;;;;;;;;;;;;;;;;;;5012804;28;19918;-81
2022/05/26 08:35:46;;;;;;;;;;;;;;;;;;4996472;28;19917;-82
2022/05/26 08:38:12;;;;;;;;;;;;;;;;;;5012628;28;19983;-82
2022/05/26 08:40:42;;;;;;;;;;;;;;;;;;5012913;28;19945;-82
2022/05/26 08:43:10;;;;;;;;;;;;;;;;;;5030841;28;19918;-82
2022/05/26 08:45:39;;;;;;;;;;;;;;;;;;5013839;28;19924;-81
2022/05/26 08:48:05;;;;;;;;;;;;;;;;;;5013121;28;20047;-83
2022/05/26 08:50:34;;;;;;;;;;;;;;;;;;5013994;28;19959;-82
2022/05/26 08:53:08;;;;;;;;;;;;;;;;;;5030289;28;19918;-82
2022/05/26 08:55:33;;;;;;;;;;;;;;;;;;5014587;28;19924;-82
2022/05/26 08:58:18;;;;;;;;;;;;;;;;;;5030690;28;19922;-82
2022/05/26 09:00:45;;;;;;;;;;;;;;;;;;5050119;28;19940;-82
2022/05/26 09:03:29;;;;;;;;;;;;;;;;;;5015734;28;19951;-82
2022/05/26 09:05:58;;;;;;;;;;;;;;;;;;5029993;27;19918;-80
2022/05/26 09:13:59;;;;;;;;;;;;;;;;;;5031117;28;20009;-79
2022/05/26 09:16:26;;;;;;;;;;;;;;;;;;5030795;28;19961;-79
2022/05/26 09:19:12;;;;;;;;;;;;;;;;;;5028717;28;20375;-79
2022/05/26 09:21:38;;;;;;;;;;;;;;;;;;4999022;28;19940;-79
2022/05/26 09:24:30;;;;;;;;;;;;;;;;;;5031151;28;19918;-80
2022/05/26 09:26:59;;;;;;;;;;;;;;;;;;5032248;28;19925;-79
2022/05/26 09:29:26;;;;;;;;;;;;;;;;;;5032255;28;19918;-79
2022/05/26 09:31:52;;;;;;;;;;;;;;;;;;5033254;28;19918;-78
2022/05/26 09:34:19;;;;;;;;;;;;;;;;;;5046927;28;20008;-78
2022/05/26 09:36:46;;;;;;;;;;;;;;;;;;5016738;28;19921;-78
2022/05/26 09:39:13;;;;;;;;;;;;;;;;;;5033856;28;19921;-79
2022/05/26 09:41:44;;;;;;;;;;;;;;;;;;5066738;27;19913;-79
2022/05/26 09:44:24;;;;;;;;;;;;;;;;;;5034634;28;20332;-79
2022/05/26 09:46:51;;;;;;;;;;;;;;;;;;5067127;28;19920;-79
2022/05/26 09:49:17;;;;;;;;;;;;;;;;;;5034302;28;19921;-81
2022/05/26 09:51:45;;;;;;;;;;;;;;;;;;5032812;28;19917;-79
2022/05/26 09:54:24;;;;;;;;;;;;;;;;;;5050300;28;19971;-78
2022/05/26 09:56:49;;;;;;;;;;;;;;;;;;5016589;28;19944;-81
2022/05/26 09:59:32;;;;;;;;;;;;;;;;;;5034365;28;20263;-79
2022/05/26 10:02:07;;;;;;;;;;;;;;;;;;5038220;28;19917;-78
2022/05/26 10:04:45;;;;;;;;;;;;;;;;;;5027864;28;19960;-76
2022/05/26 10:07:19;;;;;;;;;;;;;;;;;;5011367;28;19928;-78
2022/05/26 10:09:51;;;;;;;;;;;;;;;;;;5027435;28;19917;-78
2022/05/26 10:12:31;;;;;;;;;;;;;;;;;;5061791;28;20306;-79
2022/05/26 10:15:16;;;;;;;;;;;;;;;;;;5028236;28;19918;-78
2022/05/26 10:17:46;;;;;;;;;;;;;;;;;;5011741;28;20464;-78
2022/05/26 10:20:36;;;;;;;;;;;;;;;;;;5063436;28;20438;-78
2022/05/26 10:23:14;;;;;;;;;;;;;;;;;;5017792;28;19924;-78
2022/05/26 10:25:39;;;;;;;;;;;;;;;;;;5047417;27;19925;-79
2022/05/26 10:28:23;;;;;;;;;;;;;;;;;;5028668;28;19918;-79
2022/05/26 10:31:04;;;;;;;;;;;;;;;;;;5029777;27;19921;-79
2022/05/26 10:33:48;;;;;;;;;;;;;;;;;;5011742;28;19925;-79
2022/05/26 10:36:20;;;;;;;;;;;;;;;;;;5027953;28;19980;-79
2022/05/26 10:38:46;;;;;;;;;;;;;;;;;;5012988;28;19924;-79
2022/05/26 10:41:12;;;;;;;;;;;;;;;;;;5011822;28;20383;-78
2022/05/26 10:43:44;;;;;;;;;;;;;;;;;;5011081;28;19972;-77
2022/05/26 10:46:10;;;;;;;;;;;;;;;;;;5011445;28;19997;-79
2022/05/26 10:48:38;;;;;;;;;;;;;;;;;;5046544;28;19997;-78
2022/05/26 10:51:16;;;;;;;;;;;;;;;;;;5050964;28;19917;-81
2022/05/26 10:53:42;;;;;;;;;;;;;;;;;;5066548;28;20282;-74
2022/05/26 10:56:08;;;;;;;;;;;;;;;;;;5015588;28;19993;-74
2022/05/26 10:58:37;;;;;;;;;;;;;;;;;;5032857;28;20323;-76
2022/05/26 11:01:08;;;;;;;;;;;;;;;;;;5047485;28;20010;-76
2022/05/26 11:03:40;;;;;;;;;;;;;;;;;;5047768;28;19921;-77
2022/05/26 11:06:09;;;;;;;;;;;;;;;;;;5031957;28;19924;-77
2022/05/26 11:08:37;;;;;;;;;;;;;;;;;;5019327;28;19918;-75
2022/05/26 11:11:06;;;;;;;;;;;;;;;;;;5028395;28;19963;-75
2022/05/26 11:13:50;;;;;;;;;;;;;;;;;;5011082;28;19963;-75
2022/05/26 11:19:35;;;;;;;;;;;;;;;;;;4980340;28;19950;-75
2022/05/26 11:22:02;;;;;;;;;;;;;;;;;;5045161;28;19924;-74
2022/05/26 11:24:28;;;;;;;;;;;;;;;;;;5013285;28;19924;-75
2022/05/26 11:27:01;;;;;;;;;;;;;;;;;;5011881;28;19917;-75
2022/05/26 11:29:40;;;;;;;;;;;;;;;;;;5012338;28;19917;-75
2022/05/26 11:37:56;;;;;;;;;;;;;;;;;;5012945;28;19944;-75
2022/05/26 11:40:27;;;;;;;;;;;;;;;;;;5028271;28;19924;-74
2022/05/26 11:42:54;;;;;;;;;;;;;;;;;;5012837;28;19976;-74
2022/05/26 11:45:22;;;;;;;;;;;;;;;;;;5044699;28;19923;-74
2022/05/26 11:47:53;;;;;;;;;;;;;;;;;;5028289;28;19917;-74
2022/05/26 11:50:22;;;;;;;;;;;;;;;;;;5044638;28;19917;-74
2022/05/26 11:52:53;;;;;;;;;;;;;;;;;;5044978;28;19918;-75
2022/05/26 11:55:33;;;;;;;;;;;;;;;;;;5060849;28;19917;-74
2022/05/26 11:58:23;;;;;;;;;;;;;;;;;;5027721;28;19922;-74
2022/05/26 12:00:49;;;;;;;;;;;;;;;;;;5031428;28;19921;-74
2022/05/26 12:03:21;;;;;;;;;;;;;;;;;;5031166;28;19924;-74
2022/05/26 12:05:48;;;;;;;;;;;;;;;;;;5064320;28;19924;-74
2022/05/26 12:08:31;;;;;;;;;;;;;;;;;;5032471;28;19917;-74
2022/05/26 12:10:58;;;;;;;;;;;;;;;;;;5032304;28;19917;-74
2022/05/26 12:13:24;;;;;;;;;;;;;;;;;;5064278;27;19966;-74
2022/05/26 12:16:10;;;;;;;;;;;;;;;;;;5064232;28;20301;-74
2022/05/26 12:18:41;;;;;;;;;;;;;;;;;;5010997;28;19929;-74
2022/05/26 12:21:11;;;;;;;;;;;;;;;;;;5044106;28;19953;-74
2022/05/26 12:23:36;;;;;;;;;;;;;;;;;;5012466;28;19918;-75
2022/05/26 12:26:21;;;;;;;;;;;;;;;;;;5011149;28;20333;-75
2022/05/26 12:28:46;;;;;;;;;;;;;;;;;;5012097;28;19917;-74
2022/05/26 12:31:12;;;;;;;;;;;;;;;;;;5010393;28;20450;-76
2022/05/26 12:33:49;;;;;;;;;;;;;;;;;;5044207;28;20334;-75
2022/05/26 12:36:38;;;;;;;;;;;;;;;;;;5044234;28;19921;-75
2022/05/26 12:39:14;;;;;;;;;;;;;;;;;;5010736;28;20028;-75
2022/05/26 12:41:52;;;;;;;;;;;;;;;;;;5042995;28;19918;-75
2022/05/26 12:44:27;;;;;;;;;;;;;;;;;;5011868;28;19960;-75
2022/05/26 12:47:05;;;;;;;;;;;;;;;;;;5011823;28;20353;-76
2022/05/26 12:49:45;;;;;;;;;;;;;;;;;;5011399;28;19917;-75
2022/05/26 12:52:13;;;;;;;;;;;;;;;;;;5027030;28;20037;-75
2022/05/26 12:54:48;;;;;;;;;;;;;;;;;;5010624;28;19918;-75
2022/05/26 12:57:16;;;;;;;;;;;;;;;;;;5043453;28;19989;-75
2022/05/26 12:59:41;;;;;;;;;;;;;;;;;;5011793;28;19972;-75
2022/05/26 13:02:08;;;;;;;;;;;;;;;;;;5011074;28;19956;-75
2022/05/26 13:04:35;;;;;;;;;;;;;;;;;;5011285;28;19969;-75
2022/05/26 13:07:04;;;;;;;;;;;;;;;;;;5026947;28;19918;-75
2022/05/26 13:09:38;;;;;;;;;;;;;;;;;;5011560;28;19977;-75
2022/05/26 13:12:05;;;;;;;;;;;;;;;;;;5027069;28;19917;-75
2022/05/26 13:14:47;;;;;;;;;;;;;;;;;;5011494;28;20319;-75
2022/05/26 13:17:15;;;;;;;;;;;;;;;;;;5026963;28;19922;-75
2022/05/26 13:19:47;;;;;;;;;;;;;;;;;;5010400;28;19921;-75
2022/05/26 13:22:14;;;;;;;;;;;;;;;;;;5011501;28;20383;-75
2022/05/26 13:24:47;;;;;;;;;;;;;;;;;;5010234;28;20359;-75
2022/05/26 13:27:13;;;;;;;;;;;;;;;;;;5011379;28;19961;-75
2022/05/26 13:29:44;;;;;;;;;;;;;;;;;;5026200;28;19966;-75
2022/05/26 13:34:56;;;;;;;;;;;;;;;;;;5010640;28;20016;-75
2022/05/26 13:37:26;;;;;;;;;;;;;;;;;;5010944;28;20024;-75
2022/05/26 13:40:07;;;;;;;;;;;;;;;;;;5026430;28;19933;-75
2022/05/26 13:42:33;;;;;;;;;;;;;;;;;;5026398;28;20300;-75
2022/05/26 13:44:59;;;;;;;;;;;;;;;;;;5010045;28;19967;-75
2022/05/26 13:47:26;;;;;;;;;;;;;;;;;;5009468;28;19917;-75
2022/05/26 13:49:58;;;;;;;;;;;;;;;;;;5025958;28;20005;-75
2022/05/26 13:52:25;;;;;;;;;;;;;;;;;;5009373;28;20020;-75
2022/05/26 13:54:53;;;;;;;;;;;;;;;;;;5026110;28;19917;-74
2022/05/26 13:57:48;;;;;;;;;;;;;;;;;;5010479;28;20401;-75
2022/05/26 14:00:31;;;;;;;;;;;;;;;;;;5012928;28;20011;-75
2022/05/26 14:02:59;;;;;;;;;;;;;;;;;;5025625;28;20306;-75
2022/05/26 14:05:28;;;;;;;;;;;;;;;;;;4996824;28;19925;-75
2022/05/26 14:07:57;;;;;;;;;;;;;;;;;;4990105;28;19968;-75
2022/05/26 14:10:40;;;;;;;;;;;;;;;;;;4991195;28;20367;-74
2022/05/26 14:13:11;;;;;;;;;;;;;;;;;;5006599;28;19918;-75
2022/05/26 14:16:00;;;;;;;;;;;;;;;;;;4991253;28;19917;-75
2022/05/26 14:18:31;;;;;;;;;;;;;;;;;;5000002;28;19969;-75
2022/05/26 14:21:08;;;;;;;;;;;;;;;;;;5022638;28;19925;-75
2022/05/26 14:23:35;;;;;;;;;;;;;;;;;;4991160;28;20017;-75
2022/05/26 14:26:02;;;;;;;;;;;;;;;;;;4990006;28;19918;-75
2022/05/26 14:28:33;;;;;;;;;;;;;;;;;;4991148;28;20009;-75
2022/05/26 14:31:02;;;;;;;;;;;;;;;;;;5006241;28;19917;-75
2022/05/26 14:33:28;;;;;;;;;;;;;;;;;;5009617;28;19914;-75
2022/05/26 14:35:54;;;;;;;;;;;;;;;;;;5009286;28;19944;-75
2022/05/26 14:38:21;;;;;;;;;;;;;;;;;;5025467;28;19959;-75
2022/05/26 14:40:47;;;;;;;;;;;;;;;;;;5009213;28;19961;-75
2022/05/26 14:43:17;;;;;;;;;;;;;;;;;;5024683;28;19925;-75
2022/05/26 14:45:43;;;;;;;;;;;;;;;;;;5010333;28;19982;-75
2022/05/26 14:48:09;;;;;;;;;;;;;;;;;;5009117;28;19918;-75
2022/05/26 14:50:35;;;;;;;;;;;;;;;;;;5042313;28;19918;-75
2022/05/26 14:53:05;;;;;;;;;;;;;;;;;;5009496;28;20020;-75
2022/05/26 14:55:32;;;;;;;;;;;;;;;;;;5009435;28;20002;-75
2022/05/26 14:58:02;;;;;;;;;;;;;;;;;;5010206;28;20290;-75
2022/05/26 15:00:31;;;;;;;;;;;;;;;;;;5042568;28;19917;-75
2022/05/26 15:02:56;;;;;;;;;;;;;;;;;;5042088;28;20415;-75
2022/05/26 15:05:23;;;;;;;;;;;;;;;;;;5026758;28;19921;-75
2022/05/26 15:07:49;;;;;;;;;;;;;;;;;;5029171;28;20445;-75
2022/05/26 15:10:15;;;;;;;;;;;;;;;;;;5013615;28;19924;-75
2022/05/26 15:12:41;;;;;;;;;;;;;;;;;;5045423;28;19917;-75
2022/05/26 15:15:08;;;;;;;;;;;;;;;;;;5012618;28;19925;-75
2022/05/26 15:17:35;;;;;;;;;;;;;;;;;;5027799;28;19970;-75
2022/05/26 15:20:04;;;;;;;;;;;;;;;;;;5028559;28;20390;-75
2022/05/26 15:22:34;;;;;;;;;;;;;;;;;;5028706;28;19924;-75
2022/05/26 15:25:02;;;;;;;;;;;;;;;;;;5028902;28;19918;-75
2022/05/26 15:27:30;;;;;;;;;;;;;;;;;;5012232;28;20021;-75
2022/05/26 15:29:56;;;;;;;;;;;;;;;;;;5013251;28;19962;-75
2022/05/26 15:32:32;;;;;;;;;;;;;;;;;;5028501;28;19925;-75
2022/05/26 15:34:58;;;;;;;;;;;;;;;;;;5028649;28;19925;-75
2022/05/26 15:37:24;;;;;;;;;;;;;;;;;;5011861;28;20012;-75
2022/05/26 15:39:51;;;;;;;;;;;;;;;;;;5012934;28;20018;-75
2022/05/26 15:42:16;;;;;;;;;;;;;;;;;;5011859;28;19953;-75
2022/05/26 15:44:43;;;;;;;;;;;;;;;;;;5012935;28;19917;-75
2022/05/26 15:47:10;;;;;;;;;;;;;;;;;;5027427;28;20366;-75
2022/05/26 15:49:36;;;;;;;;;;;;;;;;;;5028298;28;19918;-75
2022/05/26 15:52:02;;;;;;;;;;;;;;;;;;5028407;28;19918;-75
2022/05/26 15:54:28;;;;;;;;;;;;;;;;;;5011569;28;19966;-75
2022/05/26 15:56:54;;;;;;;;;;;;;;;;;;5027480;28;19917;-75
2022/05/26 15:59:24;;;;;;;;;;;;;;;;;;5011238;28;20016;-75
2022/05/26 16:01:49;;;;;;;;;;;;;;;;;;5044633;28;20024;-75
2022/05/26 16:04:15;;;;;;;;;;;;;;;;;;5011413;28;20435;-75
2022/05/26 16:06:43;;;;;;;;;;;;;;;;;;5012714;28;19917;-75
2022/05/26 16:09:09;;;;;;;;;;;;;;;;;;5012758;28;19960;-75
2022/05/26 16:11:37;;;;;;;;;;;;;;;;;;5011364;28;19918;-75
2022/05/26 16:14:03;;;;;;;;;;;;;;;;;;5044345;28;19917;-75
2022/05/26 16:16:28;;;;;;;;;;;;;;;;;;5027603;28;19924;-75
2022/05/26 16:18:54;;;;;;;;;;;;;;;;;;5012554;28;19921;-75
2022/05/26 16:21:19;;;;;;;;;;;;;;;;;;5012428;28;19924;-75
2022/05/26 16:23:49;;;;;;;;;;;;;;;;;;5012404;28;19917;-75
2022/05/26 16:26:15;;;;;;;;;;;;;;;;;;5009617;28;19964;-75
2022/05/26 16:28:40;;;;;;;;;;;;;;;;;;5027879;28;19918;-75
2022/05/26 16:31:05;;;;;;;;;;;;;;;;;;5010967;28;19921;-75
2022/05/26 16:33:31;;;;;;;;;;;;;;;;;;5044178;28;19925;-75
2022/05/26 16:38:41;;;;;;;;;;;;;;;;;;5011294;28;19965;-75
2022/05/26 16:41:08;;;;;;;;;;;;;;;;;;5011965;28;20355;-75
2022/05/26 16:43:33;;;;;;;;;;;;;;;;;;5011949;28;19922;-74
2022/05/26 16:45:59;;;;;;;;;;;;;;;;;;5012118;28;20371;-75
2022/05/26 16:48:24;;;;;;;;;;;;;;;;;;5011990;28;19918;-75
2022/05/26 16:50:50;;;;;;;;;;;;;;;;;;5043897;28;19925;-75
2022/05/26 16:53:16;;;;;;;;;;;;;;;;;;5011962;28;19917;-75
2022/05/26 16:55:45;;;;;;;;;;;;;;;;;;5010111;28;19924;-75
2022/05/26 16:58:12;;;;;;;;;;;;;;;;;;5011902;28;20398;-75
2022/05/26 17:00:38;;;;;;;;;;;;;;;;;;5011777;28;19925;-74
2022/05/26 17:03:03;;;;;;;;;;;;;;;;;;5060224;28;19917;-75
2022/05/26 17:05:29;;;;;;;;;;;;;;;;;;5011017;28;20013;-75
2022/05/26 17:07:54;;;;;;;;;;;;;;;;;;5043556;28;19924;-75
2022/05/26 17:10:23;;;;;;;;;;;;;;;;;;5011636;28;20002;-75
2022/05/26 17:21:01;;;;;;;;;;;;;;;;;;5043384;28;19965;-75
2022/05/26 17:23:34;;;;;;;;;;;;;;;;;;5011697;28;19943;-75
2022/05/26 17:26:01;;;;;;;;;;;;;;;;;;5011447;28;19917;-75
2022/05/26 17:28:26;;;;;;;;;;;;;;;;;;5010923;28;20054;-74
2022/05/26 17:30:52;;;;;;;;;;;;;;;;;;5010987;28;20007;-75
2022/05/26 17:33:17;;;;;;;;;;;;;;;;;;5011279;28;19925;-75
2022/05/26 17:35:42;;;;;;;;;;;;;;;;;;5008561;28;20071;-75
2022/05/26 17:38:09;;;;;;;;;;;;;;;;;;5011153;28;19922;-75
2022/05/26 17:40:35;;;;;;;;;;;;;;;;;;5026508;28;19950;-74
2022/05/26 17:43:01;;;;;;;;;;;;;;;;;;5043059;28;19918;-75
2022/05/26 17:45:26;;;;;;;;;;;;;;;;;;5042877;28;20289;-75
2022/05/26 17:47:52;;;;;;;;;;;;;;;;;;5011082;28;19918;-74
2022/05/26 17:50:18;;;;;;;;;;;;;;;;;;5010369;28;19917;-74
2022/05/26 17:52:43;;;;;;;;;;;;;;;;;;5008957;28;19928;-75